createdAt,value
2022-11-16T00:03:23.931Z,99750.17
2022-11-16T00:09:48.455Z,99755.78
2022-11-16T00:16:12.964Z,99761.73
2022-11-16T00:22:37.347Z,99751.66
2022-11-16T00:29:02.188Z,99739.38
2022-11-16T00:35:26.790Z,99737.39
2022-11-16T00:41:51.293Z,99739.36
2022-11-16T00:48:15.852Z,99741.23
2022-11-16T00:54:40.351Z,99733.10
2022-11-16T01:01:04.955Z,99730.05
2022-11-16T01:07:29.595Z,99727.66
2022-11-16T01:13:54.300Z,99714.77
2022-11-16T01:20:18.716Z,99706.77
2022-11-16T01:26:43.171Z,99705.11
2022-11-16T01:33:00.609Z,99706.61
2022-11-16T01:39:25.113Z,99706.91
2022-11-16T01:45:49.626Z,99702.08
2022-11-16T01:52:14.119Z,99703.95
2022-11-16T01:58:38.633Z,99697.54
2022-11-16T02:05:03.127Z,99681.27
2022-11-16T02:11:32.366Z,99674.02
2022-11-16T02:18:21.012Z,99669.27
2022-11-16T02:24:25.029Z,99662.84
2022-11-16T02:30:49.413Z,99654.89
2022-11-16T02:37:13.684Z,99645.73
2022-11-16T02:43:40.606Z,99641.19
2022-11-16T02:50:05.038Z,99637.88
2022-11-16T02:56:28.340Z,99628.23
2022-11-16T03:02:55.315Z,99624.79
2022-11-16T03:09:19.670Z,99621.77
2022-11-16T03:15:43.962Z,99620.21
2022-11-16T03:22:08.239Z,99611.83
2022-11-16T03:28:38.697Z,99607.41
2022-11-16T03:35:03.078Z,99603.02
2022-11-16T03:41:27.360Z,99597.77
2022-11-16T03:47:51.737Z,99597.58
2022-11-16T03:54:16.109Z,99597.05
2022-11-16T04:00:40.487Z,99600.69
2022-11-16T04:07:03.431Z,99595.35
2022-11-16T04:13:42.926Z,99591.30
2022-11-16T04:19:57.900Z,99584.08
2022-11-16T04:26:22.818Z,99579.73
2022-11-16T04:32:45.641Z,99572.95
2022-11-16T04:39:10.115Z,99565.92
2022-11-16T04:45:35.752Z,99563.83
2022-11-16T04:52:00.558Z,99559.19
2022-11-16T04:58:24.935Z,99563.31
2022-11-16T05:04:49.277Z,99563.45
2022-11-16T05:11:13.559Z,99560.90
2022-11-16T05:17:37.893Z,99558.56
2022-11-16T05:24:00.869Z,99564.48
2022-11-16T05:30:25.290Z,99564.01
2022-11-16T05:36:52.525Z,99562.41
2022-11-16T05:43:16.896Z,99568.85
2022-11-16T05:49:41.417Z,99571.01
2022-11-16T05:56:05.979Z,99569.30
2022-11-16T06:02:30.427Z,99570.47
2022-11-16T06:08:54.704Z,99572.90
2022-11-16T06:15:19.035Z,99575.61
2022-11-16T06:21:43.332Z,99580.54
2022-11-16T06:28:08.308Z,99582.62
2022-11-16T06:34:32.910Z,99586.69
2022-11-16T06:40:57.332Z,99592.04
2022-11-16T06:47:21.721Z,99589.05
2022-11-16T06:53:48.902Z,99582.78
2022-11-16T07:00:13.313Z,99574.22
2022-11-16T07:06:37.601Z,99574.90
2022-11-16T07:13:02.020Z,99572.66
2022-11-16T07:19:26.425Z,99570.08
2022-11-16T07:25:50.770Z,99562.96
2022-11-16T07:32:15.082Z,99557.55
2022-11-16T07:38:48.153Z,99560.06
2022-11-16T07:45:12.496Z,99553.31
2022-11-16T07:51:36.781Z,99552.94
2022-11-16T07:58:01.081Z,99551.44
2022-11-16T08:04:25.438Z,99553.38
2022-11-16T08:10:49.774Z,99559.27
2022-11-16T08:17:14.211Z,99555.70
2022-11-16T08:23:41.166Z,99548.14
2022-11-16T08:30:05.554Z,99548.53
2022-11-16T08:36:29.808Z,99547.07
2022-11-16T08:42:54.087Z,99546.07
2022-11-16T08:49:18.479Z,99550.45
2022-11-16T08:55:42.969Z,99550.44
2022-11-16T09:02:13.271Z,99544.71
2022-11-16T09:08:37.649Z,99555.16
2022-11-16T09:15:02.071Z,99553.46
2022-11-16T09:21:26.542Z,99549.61
2022-11-16T09:27:50.831Z,99550.29
2022-11-16T09:34:15.310Z,99546.16
2022-11-16T09:40:39.604Z,99542.67
2022-11-16T09:47:12.740Z,99532.81
2022-11-16T09:53:45.974Z,99527.32
2022-11-16T10:00:12.835Z,99522.67
2022-11-16T10:06:39.808Z,99516.42
2022-11-16T10:13:22.230Z,99507.59
2022-11-16T10:20:08.173Z,99505.21
2022-11-16T10:26:41.686Z,99499.77
2022-11-16T10:33:27.200Z,99496.92
2022-11-16T10:39:51.686Z,99493.28
2022-11-16T10:46:14.494Z,99480.00
2022-11-16T10:52:38.876Z,99482.14
2022-11-16T10:59:03.421Z,99480.39
2022-11-16T11:05:27.800Z,99475.39
2022-11-16T11:11:50.514Z,99484.00
2022-11-16T11:18:14.907Z,99488.67
2022-11-16T11:24:44.827Z,99484.39
2022-11-16T11:31:09.881Z,99479.64
2022-11-16T11:37:39.959Z,99483.58
2022-11-16T11:44:07.228Z,99475.64
2022-11-16T11:50:31.611Z,99473.46
2022-11-16T11:56:56.135Z,99475.59
2022-11-16T12:03:20.585Z,99467.13
2022-11-16T12:09:51.055Z,99461.23
2022-11-16T12:16:20.440Z,99452.09
2022-11-16T12:23:01.130Z,99449.76
2022-11-16T12:29:25.435Z,99452.02
2022-11-16T12:35:49.981Z,99450.05
2022-11-16T12:42:11.462Z,99452.40
2022-11-16T12:48:50.371Z,99447.19
2022-11-16T12:55:26.678Z,99450.54
2022-11-16T13:02:00.302Z,99445.33
2022-11-16T13:08:28.314Z,99442.98
2022-11-16T13:14:52.643Z,99444.58
2022-11-16T13:21:18.914Z,99444.98
2022-11-16T13:27:41.815Z,99452.31
2022-11-16T13:34:12.708Z,99457.92
2022-11-16T13:40:39.011Z,99458.20
2022-11-16T13:47:03.305Z,99449.44
2022-11-16T14:00:07.519Z,99460.42
2022-11-16T14:06:34.930Z,99463.65
2022-11-16T14:12:57.857Z,99461.98
2022-11-16T14:19:22.228Z,99462.40
2022-11-16T14:25:46.607Z,99468.05
2022-11-16T14:32:11.129Z,99473.79
2022-11-16T14:38:38.328Z,99474.60
2022-11-16T14:45:02.712Z,99479.84
2022-11-16T14:51:27.003Z,99481.11
2022-11-16T14:58:00.601Z,99484.48
2022-11-16T15:04:27.556Z,99482.27
2022-11-16T15:10:52.821Z,99483.57
2022-11-16T15:17:17.274Z,99478.27
2022-11-16T15:23:42.374Z,99478.02
2022-11-16T15:30:06.855Z,99479.19
2022-11-16T15:36:34.102Z,99482.68
2022-11-16T15:42:58.513Z,99479.05
2022-11-16T15:49:22.854Z,99477.33
2022-11-16T15:55:47.279Z,99476.05
2022-11-16T16:02:11.659Z,99483.02
2022-11-16T16:08:38.825Z,99482.65
2022-11-16T16:15:08.915Z,99487.16
2022-11-16T16:21:33.403Z,99486.36
2022-11-16T16:27:57.917Z,99483.32
2022-11-16T16:34:22.226Z,99489.11
2022-11-16T16:40:46.711Z,99490.48
2022-11-16T16:47:11.253Z,99494.52
2022-11-16T16:53:36.044Z,99500.27
2022-11-16T17:00:00.766Z,99494.84
2022-11-16T17:06:25.174Z,99501.02
2022-11-16T17:12:49.716Z,99495.48
2022-11-16T17:19:14.059Z,99500.20
2022-11-16T17:25:38.335Z,99505.36
2022-11-16T17:31:59.175Z,99510.73
2022-11-16T17:38:23.445Z,99512.68
2022-11-16T17:44:47.789Z,99511.59
2022-11-16T17:51:12.104Z,99505.52
2022-11-16T17:57:36.469Z,99503.98
2022-11-16T18:03:43.688Z,99503.93
2022-11-16T18:10:08.152Z,99502.70
2022-11-16T18:16:35.456Z,99504.18
2022-11-16T18:22:59.739Z,99503.27
2022-11-16T18:29:26.703Z,99506.39
2022-11-16T18:35:51.077Z,99510.38
2022-11-16T18:42:15.379Z,99517.05
2022-11-16T18:48:39.721Z,99522.45
2022-11-16T18:55:04.164Z,99521.17
2022-11-16T19:01:28.519Z,99521.13
2022-11-16T19:07:52.055Z,99517.81
2022-11-16T19:14:16.399Z,99516.39
2022-11-16T19:20:40.913Z,99517.63
2022-11-16T19:26:57.796Z,99518.70
2022-11-16T19:33:15.428Z,99522.00
2022-11-16T19:39:39.807Z,99526.25
2022-11-16T19:46:04.200Z,99527.09
2022-11-16T19:52:28.533Z,99529.42
2022-11-16T19:58:52.804Z,99532.14
2022-11-16T20:05:17.177Z,99534.37
2022-11-16T20:11:41.574Z,99534.31
2022-11-16T20:18:05.872Z,99536.78
2022-11-16T20:24:30.265Z,99535.34
2022-11-16T20:30:54.685Z,99543.95
2022-11-16T20:37:19.102Z,99541.27
2022-11-16T20:43:43.411Z,99537.27
2022-11-16T20:50:06.523Z,99533.48
2022-11-16T20:56:30.912Z,99536.43
2022-11-16T21:02:55.213Z,99535.20
2022-11-16T21:09:19.525Z,99530.56
2022-11-16T21:15:43.974Z,99532.00
2022-11-16T21:21:57.090Z,99525.33
2022-11-16T21:28:25.512Z,99530.40
2022-11-16T21:34:50.145Z,99537.02
2022-11-16T21:41:14.712Z,99539.00
2022-11-16T21:47:39.063Z,99534.04
2022-11-16T21:54:03.438Z,99526.88
2022-11-16T22:00:27.859Z,99528.20
2022-11-16T22:06:53.915Z,99521.57
2022-11-16T22:13:18.406Z,99518.88
2022-11-16T22:19:42.954Z,99525.42
2022-11-16T22:26:07.664Z,99531.06
2022-11-16T22:32:32.322Z,99527.93
2022-11-16T22:38:56.826Z,99527.77
2022-11-16T22:45:21.310Z,99527.35
2022-11-16T22:52:01.203Z,99527.91
2022-11-16T22:58:25.729Z,99531.05
2022-11-16T23:04:50.309Z,99525.09
2022-11-16T23:11:13.157Z,99524.33
2022-11-16T23:17:37.686Z,99525.09
2022-11-16T23:24:00.520Z,99526.69
2022-11-16T23:30:24.846Z,99528.13
2022-11-16T23:36:49.284Z,99527.92
2022-11-16T23:43:12.046Z,99531.09
2022-11-16T23:49:36.547Z,99535.14
2022-11-16T23:56:05.546Z,99533.90
